createdAt,value
2017-12-03T00:00:02.244Z,74.23
2017-12-03T00:02:49.916Z,75.27
2017-12-03T00:05:18.997Z,74.67
2017-12-03T00:07:49.966Z,74.19
2017-12-03T00:10:23.813Z,73.96
2017-12-03T00:12:52.875Z,74.55
2017-12-03T00:15:22.893Z,73.75
2017-12-03T00:17:51.982Z,73.10
2017-12-03T00:20:31.471Z,73.55
2017-12-03T00:23:00.550Z,73.45
2017-12-03T00:25:50.849Z,73.98
2017-12-03T00:28:23.994Z,74.52
2017-12-03T00:30:53.010Z,73.65
2017-12-03T00:33:22.089Z,74.61
2017-12-03T00:35:52.040Z,74.11
2017-12-03T00:38:21.236Z,74.46
2017-12-03T00:40:50.294Z,73.90
2017-12-03T00:43:24.167Z,73.16
2017-12-03T00:45:53.234Z,73.64
2017-12-03T00:48:27.507Z,74.53
2017-12-03T00:50:59.614Z,74.01
2017-12-03T00:53:32.566Z,72.91
2017-12-03T00:56:01.618Z,73.20
2017-12-03T01:01:06.611Z,73.34
2017-12-03T01:03:36.563Z,73.60
2017-12-03T01:06:05.742Z,73.23
2017-12-03T01:08:38.211Z,73.24
2017-12-03T01:11:10.808Z,73.86
2017-12-03T01:16:24.142Z,72.38
2017-12-03T01:18:54.169Z,73.77
2017-12-03T01:21:37.782Z,73.66
2017-12-03T01:24:06.820Z,73.87
2017-12-03T01:26:35.870Z,73.85
2017-12-03T01:29:04.956Z,72.86
2017-12-03T01:31:42.394Z,72.50
2017-12-03T01:34:40.972Z,73.10
2017-12-03T01:37:10.023Z,73.33
2017-12-03T01:39:39.136Z,73.93
2017-12-03T01:42:08.202Z,73.92
2017-12-03T01:44:37.256Z,73.30
2017-12-03T01:47:06.312Z,72.96
2017-12-03T01:52:26.642Z,73.96
2017-12-03T01:54:55.696Z,73.99
2017-12-03T01:57:24.758Z,73.16
2017-12-03T01:59:53.807Z,73.55
2017-12-03T02:02:22.858Z,73.22
2017-12-03T02:04:51.958Z,73.50
2017-12-03T02:07:21.954Z,72.72
2017-12-03T02:09:51.030Z,73.36
2017-12-03T02:12:21.070Z,73.93
2017-12-03T02:14:50.114Z,73.75
2017-12-03T02:17:29.850Z,72.82
2017-12-03T02:19:58.870Z,73.28
2017-12-03T02:22:27.922Z,72.92
2017-12-03T02:24:56.982Z,73.06
2017-12-03T02:27:26.074Z,72.08
2017-12-03T02:29:55.133Z,72.75
2017-12-03T02:32:24.234Z,72.66
2017-12-03T02:34:53.288Z,70.99
2017-12-03T02:39:58.538Z,70.64
2017-12-03T02:45:04.957Z,72.15
2017-12-03T02:47:34.002Z,72.02
2017-12-03T02:50:03.115Z,72.08
2017-12-03T02:52:35.920Z,72.75
2017-12-03T02:55:05.074Z,72.53
2017-12-03T02:57:49.459Z,72.80
2017-12-03T03:02:58.072Z,73.62
2017-12-03T03:05:32.430Z,74.22
2017-12-03T03:08:01.582Z,73.74
2017-12-03T03:10:30.648Z,73.54
2017-12-03T03:12:59.697Z,73.89
2017-12-03T03:15:28.753Z,74.55
2017-12-03T03:17:57.788Z,74.01
2017-12-03T03:23:05.986Z,74.58
2017-12-03T03:25:35.034Z,74.45
2017-12-03T03:28:04.115Z,74.51
2017-12-03T03:30:33.229Z,74.42
2017-12-03T03:33:02.279Z,73.67
2017-12-03T03:35:31.345Z,74.38
2017-12-03T03:38:00.406Z,73.86
2017-12-03T03:40:29.493Z,73.86
2017-12-03T03:42:58.600Z,73.44
2017-12-03T03:45:28.586Z,72.29
2017-12-03T03:47:57.632Z,73.07
2017-12-03T03:50:37.830Z,73.11
2017-12-03T03:53:12.606Z,73.89
2017-12-03T03:58:23.725Z,72.81
2017-12-03T04:00:52.801Z,73.29
2017-12-03T04:03:32.368Z,73.62
2017-12-03T04:06:01.433Z,73.20
2017-12-03T04:08:34.375Z,73.43
2017-12-03T04:11:03.434Z,72.97
2017-12-03T04:13:36.232Z,73.18
2017-12-03T04:16:06.185Z,73.08
2017-12-03T04:18:49.974Z,73.71
2017-12-03T04:21:44.302Z,73.81
2017-12-03T04:26:56.517Z,73.48
2017-12-03T04:29:25.566Z,73.70
2017-12-03T04:31:54.657Z,73.61
2017-12-03T04:34:23.697Z,73.47
2017-12-03T04:36:52.915Z,73.69
2017-12-03T04:42:00.575Z,73.42
2017-12-03T04:44:29.642Z,73.73
2017-12-03T04:46:58.694Z,73.43
2017-12-03T04:49:27.752Z,71.67
2017-12-03T04:51:57.737Z,72.25
2017-12-03T04:54:32.557Z,72.78
2017-12-03T04:57:01.651Z,72.66
2017-12-03T04:59:38.232Z,73.04
2017-12-03T05:02:07.334Z,72.77
2017-12-03T05:04:36.375Z,72.83
2017-12-03T05:07:05.426Z,72.88
2017-12-03T05:09:34.488Z,72.49
2017-12-03T05:12:03.547Z,72.34
2017-12-03T05:14:32.650Z,72.67
2017-12-03T05:17:01.691Z,72.53
2017-12-03T05:19:30.746Z,72.45
2017-12-03T05:21:59.834Z,72.49
2017-12-03T05:27:11.458Z,72.82
2017-12-03T05:29:41.415Z,72.87
2017-12-03T05:32:18.663Z,72.83
2017-12-03T05:34:49.616Z,73.19
2017-12-03T05:37:26.388Z,72.81
2017-12-03T05:39:55.412Z,73.06
2017-12-03T05:45:04.257Z,71.89
2017-12-03T05:47:34.371Z,72.25
2017-12-03T05:50:03.418Z,70.91
2017-12-03T05:52:32.525Z,71.91
2017-12-03T05:55:01.586Z,72.40
2017-12-03T05:57:51.714Z,72.38
2017-12-03T06:00:24.225Z,72.70
2017-12-03T06:02:53.325Z,72.01
2017-12-03T06:05:24.308Z,71.55
2017-12-03T06:07:53.367Z,72.40
2017-12-03T06:10:29.570Z,72.52
2017-12-03T06:12:58.619Z,73.09
2017-12-03T06:18:06.448Z,73.25
2017-12-03T06:20:38.543Z,72.43
2017-12-03T06:23:07.645Z,72.86
2017-12-03T06:28:20.047Z,72.37
2017-12-03T06:30:49.982Z,72.52
2017-12-03T06:33:19.043Z,72.56
2017-12-03T06:35:49.998Z,72.65
2017-12-03T06:38:28.879Z,72.95
2017-12-03T06:40:57.961Z,72.75
2017-12-03T06:43:28.923Z,71.94
2017-12-03T06:45:57.985Z,72.15
2017-12-03T06:48:49.580Z,72.74
2017-12-03T06:51:47.398Z,72.70
2017-12-03T06:54:20.839Z,72.66
2017-12-03T06:56:49.899Z,71.62
2017-12-03T06:59:36.379Z,72.55
2017-12-03T07:02:05.443Z,72.29
2017-12-03T07:04:37.957Z,72.27
2017-12-03T07:07:07.022Z,72.19
2017-12-03T07:09:39.745Z,72.49
2017-12-03T07:12:08.798Z,72.18
2017-12-03T07:14:37.854Z,72.38
2017-12-03T07:17:06.960Z,72.20
2017-12-03T07:19:47.519Z,72.38
2017-12-03T07:22:16.603Z,71.94
2017-12-03T07:30:05.418Z,71.47
2017-12-03T07:32:49.766Z,71.01
2017-12-03T07:38:00.903Z,69.69
2017-12-03T07:40:33.802Z,70.20
2017-12-03T07:43:02.884Z,70.25
2017-12-03T07:45:49.369Z,69.87
2017-12-03T07:50:55.462Z,69.45
2017-12-03T07:53:31.546Z,69.19
2017-12-03T07:56:01.486Z,69.86
2017-12-03T07:58:47.239Z,69.81
2017-12-03T08:01:35.466Z,69.72
2017-12-03T08:04:04.635Z,69.89
2017-12-03T08:06:47.486Z,69.75
2017-12-03T08:09:43.427Z,69.48
2017-12-03T08:12:44.343Z,68.85
2017-12-03T08:15:25.051Z,69.65
2017-12-03T08:17:54.234Z,69.51
2017-12-03T08:23:14.523Z,68.72
2017-12-03T08:25:52.266Z,68.96
2017-12-03T08:28:25.113Z,68.64
2017-12-03T08:30:54.180Z,68.41
2017-12-03T08:33:25.195Z,68.23
2017-12-03T08:35:58.724Z,67.11
2017-12-03T08:38:43.240Z,67.37
2017-12-03T08:44:03.476Z,66.55
2017-12-03T08:46:50.221Z,66.19
2017-12-03T08:49:22.462Z,65.14
2017-12-03T08:51:51.855Z,63.74
2017-12-03T08:54:44.829Z,65.62
2017-12-03T08:59:51.232Z,64.59
2017-12-03T09:02:20.286Z,65.49
2017-12-03T09:04:50.302Z,65.25
2017-12-03T09:07:31.797Z,63.46
2017-12-03T09:10:01.708Z,64.95
2017-12-03T09:12:34.351Z,64.94
2017-12-03T09:15:03.501Z,64.60
2017-12-03T09:17:34.543Z,64.49
2017-12-03T09:20:03.625Z,64.50
2017-12-03T09:22:32.668Z,62.31
2017-12-03T09:25:01.724Z,60.65
2017-12-03T09:27:30.812Z,63.65
2017-12-03T09:30:10.998Z,62.15
2017-12-03T09:32:40.070Z,64.22
2017-12-03T09:35:09.159Z,61.64
2017-12-03T09:37:38.183Z,63.42
2017-12-03T09:40:07.272Z,63.78
2017-12-03T09:42:36.319Z,63.73
2017-12-03T09:45:05.408Z,64.03
2017-12-03T09:47:42.948Z,64.73
2017-12-03T09:50:12.163Z,63.91
2017-12-03T09:52:46.986Z,62.22
2017-12-03T09:55:16.204Z,63.53
2017-12-03T09:58:03.624Z,63.40
2017-12-03T10:00:43.759Z,62.61
2017-12-03T10:03:12.799Z,62.76
2017-12-03T10:05:50.754Z,64.45
2017-12-03T10:08:19.933Z,63.01
2017-12-03T10:13:54.131Z,64.24
2017-12-03T10:16:23.279Z,63.91
2017-12-03T10:19:06.301Z,64.02
2017-12-03T10:21:36.799Z,64.66
2017-12-03T10:24:06.799Z,63.62
2017-12-03T10:26:37.765Z,65.41
2017-12-03T10:29:06.840Z,67.48
2017-12-03T10:31:53.580Z,66.30
2017-12-03T10:34:22.851Z,65.32
2017-12-03T10:36:52.153Z,65.78
2017-12-03T10:39:21.186Z,65.02
2017-12-03T10:41:52.195Z,65.52
2017-12-03T10:44:21.290Z,65.20
2017-12-03T10:46:57.555Z,66.24
2017-12-03T10:49:48.210Z,65.83
2017-12-03T10:52:17.311Z,66.41
2017-12-03T10:54:50.254Z,67.37
2017-12-03T10:57:19.335Z,67.18
2017-12-03T10:59:48.486Z,67.69
2017-12-03T11:02:18.492Z,67.58
2017-12-03T11:04:51.996Z,66.99
2017-12-03T11:07:21.282Z,65.71
2017-12-03T11:12:30.490Z,65.70
2017-12-03T11:14:59.607Z,66.41
2017-12-03T11:17:29.577Z,66.32
2017-12-03T11:19:58.655Z,67.64
2017-12-03T11:22:27.742Z,67.10
2017-12-03T11:24:56.906Z,66.96
2017-12-03T11:27:25.982Z,67.41
2017-12-03T11:29:55.092Z,67.66
2017-12-03T11:32:24.299Z,67.79
2017-12-03T11:34:53.355Z,68.08
2017-12-03T11:37:24.339Z,66.45
2017-12-03T11:40:05.885Z,66.78
2017-12-03T11:42:35.748Z,65.17
2017-12-03T11:45:05.711Z,67.13
2017-12-03T11:50:10.028Z,66.00
2017-12-03T11:55:18.257Z,66.01
2017-12-03T11:57:47.331Z,66.23
2017-12-03T12:00:16.365Z,65.79
2017-12-03T12:05:22.446Z,65.06
2017-12-03T12:07:55.253Z,66.67
2017-12-03T12:10:24.353Z,65.16
2017-12-03T12:13:06.846Z,64.25
2017-12-03T12:15:40.058Z,62.49
2017-12-03T12:18:09.309Z,63.28
2017-12-03T12:20:52.302Z,64.00
2017-12-03T12:23:21.786Z,63.85
2017-12-03T12:28:41.274Z,65.07
2017-12-03T12:31:10.338Z,63.95
2017-12-03T12:36:17.739Z,66.18
2017-12-03T12:39:06.751Z,66.48
2017-12-03T12:41:37.540Z,67.57
2017-12-03T12:44:07.176Z,65.92
2017-12-03T12:46:41.838Z,65.90
2017-12-03T12:49:12.487Z,67.14
2017-12-03T12:54:19.746Z,66.60
2017-12-03T12:56:49.094Z,66.41
2017-12-03T12:59:19.076Z,66.77
2017-12-03T13:04:27.369Z,65.87
2017-12-03T13:06:56.494Z,66.97
2017-12-03T13:09:25.548Z,67.37
2017-12-03T13:12:05.118Z,66.50
2017-12-03T13:14:59.001Z,66.93
2017-12-03T13:20:12.739Z,67.70
2017-12-03T13:25:23.953Z,68.00
2017-12-03T13:31:01.894Z,69.56
2017-12-03T13:36:11.134Z,68.71
2017-12-03T13:41:18.687Z,67.34
2017-12-03T13:44:05.135Z,68.15
2017-12-03T13:46:41.283Z,68.06
2017-12-03T13:51:59.442Z,68.46
2017-12-03T13:54:32.260Z,67.58
2017-12-03T14:02:17.734Z,68.52
2017-12-03T14:04:54.701Z,68.34
2017-12-03T14:07:23.743Z,69.33
2017-12-03T14:10:05.794Z,68.33
2017-12-03T14:12:39.954Z,67.79
2017-12-03T14:15:09.105Z,67.34
2017-12-03T14:20:13.369Z,68.99
2017-12-03T14:25:51.633Z,68.70
2017-12-03T14:28:20.687Z,69.86
2017-12-03T14:30:53.439Z,70.08
2017-12-03T14:33:22.490Z,69.83
2017-12-03T14:36:05.773Z,69.89
2017-12-03T14:41:12.375Z,68.39
2017-12-03T14:43:43.364Z,69.03
2017-12-03T14:46:12.428Z,68.16
2017-12-03T14:48:54.267Z,69.42
2017-12-03T14:51:23.405Z,70.47
2017-12-03T14:53:52.470Z,70.57
2017-12-03T14:56:21.511Z,68.98
2017-12-03T15:02:05.309Z,68.92
2017-12-03T15:04:37.846Z,69.26
2017-12-03T15:07:06.934Z,69.45
2017-12-03T15:10:07.139Z,69.62
2017-12-03T15:15:13.382Z,70.11
2017-12-03T15:17:54.247Z,70.55
2017-12-03T15:20:23.294Z,69.51
2017-12-03T15:22:52.359Z,70.05
2017-12-03T15:25:21.440Z,70.48
2017-12-03T15:27:50.494Z,69.52
2017-12-03T15:30:19.546Z,70.53
2017-12-03T15:32:52.352Z,69.88
2017-12-03T15:35:22.509Z,70.27
2017-12-03T15:37:55.020Z,70.02
2017-12-03T15:40:24.814Z,71.30
2017-12-03T15:43:01.845Z,71.30
2017-12-03T15:45:32.831Z,70.98
2017-12-03T15:48:05.670Z,69.94
2017-12-03T15:53:17.718Z,71.90
2017-12-03T15:55:50.590Z,71.36
2017-12-03T15:58:19.653Z,70.85
2017-12-03T16:01:03.236Z,70.97
2017-12-03T16:03:32.340Z,70.37
2017-12-03T16:06:08.087Z,69.79
2017-12-03T16:08:39.311Z,71.33
2017-12-03T16:11:09.297Z,71.04
2017-12-03T16:16:21.573Z,70.13
2017-12-03T16:21:37.937Z,71.00
2017-12-03T16:26:43.217Z,70.49
2017-12-03T16:29:12.279Z,71.10
2017-12-03T16:34:21.139Z,72.33
2017-12-03T16:39:47.370Z,72.84
2017-12-03T16:42:16.422Z,72.95
2017-12-03T16:47:39.815Z,72.28
2017-12-03T16:50:08.862Z,72.72
2017-12-03T16:52:42.139Z,72.69
2017-12-03T16:55:11.195Z,72.57
2017-12-03T16:57:41.193Z,72.31
2017-12-03T17:00:10.379Z,72.55
2017-12-03T17:02:49.598Z,71.95
2017-12-03T17:05:18.739Z,71.21
2017-12-03T17:07:49.800Z,71.72
2017-12-03T17:10:19.152Z,71.80
2017-12-03T17:12:48.230Z,70.86
2017-12-03T17:15:17.297Z,70.87
2017-12-03T17:17:46.341Z,71.26
2017-12-03T17:20:15.422Z,70.82
2017-12-03T17:25:28.700Z,70.89
2017-12-03T17:28:01.322Z,72.79
2017-12-03T17:33:08.622Z,75.54
2017-12-03T17:35:37.671Z,76.57
2017-12-03T17:38:06.726Z,76.96
2017-12-03T17:40:48.603Z,77.59
2017-12-03T17:43:17.817Z,79.07
2017-12-03T17:48:23.723Z,80.96
2017-12-03T17:51:00.714Z,81.16
2017-12-03T17:53:29.800Z,81.99
2017-12-03T17:59:00.078Z,82.17
2017-12-03T18:01:42.856Z,82.62
2017-12-03T18:04:12.901Z,84.22
2017-12-03T18:06:43.892Z,84.29
2017-12-03T18:09:12.987Z,84.94
2017-12-03T18:11:43.958Z,86.15
2017-12-03T18:14:13.026Z,86.48
2017-12-03T18:19:24.283Z,87.69
2017-12-03T18:22:01.195Z,87.54
2017-12-03T18:27:08.113Z,87.83
2017-12-03T18:32:14.493Z,87.68
2017-12-03T18:34:54.362Z,87.40
2017-12-03T18:37:23.439Z,87.75
2017-12-03T18:39:53.602Z,88.24
2017-12-03T18:42:23.675Z,88.70
2017-12-03T18:44:52.709Z,89.25
2017-12-03T18:47:21.960Z,88.42
2017-12-03T18:50:00.267Z,89.27
2017-12-03T18:52:31.250Z,89.22
2017-12-03T18:55:00.302Z,89.40
2017-12-03T18:57:29.367Z,89.22
2017-12-03T18:59:58.825Z,88.79
2017-12-03T19:02:27.889Z,88.77
2017-12-03T19:04:56.993Z,88.87
2017-12-03T19:07:26.038Z,89.21
2017-12-03T19:09:55.185Z,89.05
2017-12-03T19:12:25.154Z,89.44
2017-12-03T19:15:01.450Z,89.20
2017-12-03T19:17:39.921Z,89.37
2017-12-03T19:20:08.998Z,89.48
2017-12-03T19:22:49.085Z,89.47
2017-12-03T19:27:59.718Z,89.42
2017-12-03T19:30:28.772Z,90.15
2017-12-03T19:32:58.934Z,89.21
2017-12-03T19:38:14.123Z,89.92
2017-12-03T19:40:53.980Z,89.68
2017-12-03T19:43:27.353Z,89.54
2017-12-03T19:46:02.710Z,89.77
2017-12-03T19:48:32.583Z,89.80
2017-12-03T19:51:03.730Z,90.15
2017-12-03T19:53:32.785Z,90.97
2017-12-03T19:56:01.875Z,90.67
2017-12-03T19:58:31.080Z,90.20
2017-12-03T20:01:00.258Z,90.88
2017-12-03T20:03:29.671Z,91.09
2017-12-03T20:06:03.676Z,90.41
2017-12-03T20:08:32.896Z,90.67
2017-12-03T20:11:02.033Z,91.20
2017-12-03T20:13:31.142Z,91.16
2017-12-03T20:16:05.720Z,90.98
2017-12-03T20:18:34.802Z,91.52
2017-12-03T20:21:03.929Z,91.52
2017-12-03T20:23:33.056Z,91.43
2017-12-03T20:26:05.373Z,91.03
2017-12-03T20:28:34.418Z,90.57
2017-12-03T20:31:03.490Z,90.25
2017-12-03T20:33:34.637Z,90.00
2017-12-03T20:38:44.680Z,90.30
2017-12-03T20:41:13.770Z,89.87
2017-12-03T20:46:20.490Z,89.53
2017-12-03T20:51:38.767Z,90.00
2017-12-03T20:54:07.842Z,89.99
2017-12-03T20:56:44.784Z,89.60
2017-12-03T20:59:13.880Z,89.54
2017-12-03T21:04:19.680Z,89.21
2017-12-03T21:06:49.762Z,89.56
2017-12-03T21:09:18.866Z,90.14
2017-12-03T21:11:48.005Z,90.35
2017-12-03T21:14:17.143Z,89.93
2017-12-03T21:19:46.246Z,89.97
2017-12-03T21:22:15.286Z,89.89
2017-12-03T21:24:44.382Z,90.15
2017-12-03T21:27:13.645Z,89.84
2017-12-03T21:29:42.918Z,90.10
2017-12-03T21:32:11.969Z,89.88
2017-12-03T21:34:41.018Z,89.74
2017-12-03T21:37:11.998Z,89.49
2017-12-03T21:39:41.194Z,89.74
2017-12-03T21:42:16.431Z,89.92
2017-12-03T21:44:47.999Z,90.03
2017-12-03T21:47:17.071Z,89.59
2017-12-03T21:49:46.166Z,89.87
2017-12-03T21:52:15.244Z,90.35
2017-12-03T21:57:20.696Z,89.88
2017-12-03T21:59:49.796Z,89.66
2017-12-03T22:02:18.846Z,90.50
2017-12-03T22:05:01.110Z,90.25
2017-12-03T22:07:33.574Z,90.53
2017-12-03T22:10:04.790Z,90.92
2017-12-03T22:12:33.905Z,90.52
2017-12-03T22:15:04.867Z,90.95
2017-12-03T22:17:33.934Z,91.16
2017-12-03T22:20:04.911Z,90.73
2017-12-03T22:22:41.103Z,90.76
2017-12-03T22:25:10.195Z,90.84
2017-12-03T22:28:01.439Z,90.80
2017-12-03T22:33:09.653Z,90.10
2017-12-03T22:35:38.711Z,90.44
2017-12-03T22:38:07.758Z,90.16
2017-12-03T22:40:36.954Z,90.64
2017-12-03T22:43:06.038Z,90.42
2017-12-03T22:45:35.117Z,90.67
2017-12-03T22:48:04.184Z,90.76
2017-12-03T22:50:43.110Z,90.72
2017-12-03T22:53:12.238Z,91.00
2017-12-03T22:55:42.229Z,91.19
2017-12-03T22:58:11.294Z,90.82
2017-12-03T23:00:40.986Z,90.67
2017-12-03T23:03:10.109Z,90.99
2017-12-03T23:05:44.466Z,90.92
2017-12-03T23:08:13.510Z,90.79
2017-12-03T23:10:53.928Z,90.96
2017-12-03T23:13:23.058Z,90.91
2017-12-03T23:15:53.038Z,90.74
2017-12-03T23:18:22.094Z,91.08
2017-12-03T23:20:51.151Z,91.38
2017-12-03T23:23:20.208Z,90.74
2017-12-03T23:25:49.256Z,91.01
2017-12-03T23:28:20.283Z,91.60
2017-12-03T23:30:56.694Z,91.55
2017-12-03T23:33:26.664Z,90.83
2017-12-03T23:36:00.776Z,91.16
2017-12-03T23:38:29.808Z,91.53
2017-12-03T23:41:08.688Z,91.35
2017-12-03T23:43:37.744Z,91.12
2017-12-03T23:46:06.860Z,91.21
2017-12-03T23:48:35.898Z,91.75
2017-12-03T23:51:07.921Z,91.15
2017-12-03T23:53:36.974Z,90.74
2017-12-03T23:56:06.020Z,90.41
2017-12-03T23:58:35.092Z,90.83
